createdAt,value
2023-04-15T00:01:53.640Z,5.77
2023-04-15T00:04:20.966Z,6.23
2023-04-15T00:06:55.121Z,5.73
2023-04-15T00:09:22.298Z,9.20
2023-04-15T00:11:51.284Z,9.83
2023-04-15T00:14:18.274Z,9.47
2023-04-15T00:16:45.384Z,9.63
2023-04-15T00:19:13.373Z,7.53
2023-04-15T00:21:41.389Z,8.90
2023-04-15T00:24:08.428Z,6.93
2023-04-15T00:26:35.759Z,7.83
2023-04-15T00:29:02.830Z,7.23
2023-04-15T00:31:31.606Z,8.77
2023-04-15T00:33:58.636Z,8.57
2023-04-15T00:36:26.378Z,7.60
2023-04-15T00:38:54.609Z,7.07
2023-04-15T00:41:23.057Z,8.10
2023-04-15T00:43:50.216Z,6.20
2023-04-15T00:46:20.753Z,7.53
2023-04-15T00:48:48.169Z,7.03
2023-04-15T00:51:15.107Z,7.87
2023-04-15T00:53:42.103Z,7.53
2023-04-15T00:56:09.222Z,7.57
2023-04-15T00:58:37.149Z,7.87
2023-04-15T01:01:04.806Z,8.87
2023-04-15T01:03:31.995Z,9.10
2023-04-15T01:06:03.428Z,6.43
2023-04-15T01:08:31.771Z,7.93
2023-04-15T01:11:03.856Z,8.57
2023-04-15T01:13:32.307Z,5.97
2023-04-15T01:15:59.349Z,6.80
2023-04-15T01:18:27.303Z,5.83
2023-04-15T01:20:54.572Z,6.60
2023-04-15T01:23:23.249Z,7.27
2023-04-15T01:25:51.626Z,6.57
2023-04-15T01:28:18.511Z,6.80
2023-04-15T01:30:45.629Z,6.63
2023-04-15T01:33:12.565Z,6.20
2023-04-15T01:35:39.783Z,4.97
2023-04-15T01:38:09.003Z,6.37
2023-04-15T01:40:36.139Z,6.77
2023-04-15T01:43:03.927Z,12.57
2023-04-15T01:45:31.099Z,8.80
2023-04-15T01:47:58.152Z,5.93
2023-04-15T01:50:26.113Z,6.67
2023-04-15T01:52:53.318Z,5.63
2023-04-15T01:55:20.342Z,5.27
2023-04-15T01:57:47.352Z,5.97
2023-04-15T02:00:14.752Z,5.73
2023-04-15T02:02:42.000Z,8.07
2023-04-15T02:05:09.625Z,6.93
2023-04-15T02:07:37.206Z,6.50
2023-04-15T02:10:04.721Z,6.77
2023-04-15T02:12:31.662Z,7.67
2023-04-15T02:14:58.597Z,7.80
2023-04-15T02:17:25.652Z,9.97
2023-04-15T02:19:52.627Z,9.13
2023-04-15T02:22:19.518Z,7.90
2023-04-15T02:24:47.066Z,9.67
2023-04-15T02:27:18.327Z,9.47
2023-04-15T02:29:46.075Z,8.53
2023-04-15T02:32:13.902Z,7.97
2023-04-15T02:34:42.723Z,10.23
2023-04-15T02:37:11.359Z,9.10
2023-04-15T02:39:38.390Z,11.70
2023-04-15T02:42:06.381Z,9.87
2023-04-15T02:44:35.228Z,10.70
2023-04-15T02:47:02.147Z,8.23
2023-04-15T02:49:30.919Z,8.97
2023-04-15T02:52:00.072Z,7.87
2023-04-15T02:54:28.886Z,9.20
2023-04-15T02:56:56.640Z,9.97
2023-04-15T02:59:23.627Z,9.50
2023-04-15T03:01:50.688Z,10.90
2023-04-15T03:04:17.828Z,10.23
2023-04-15T03:06:44.888Z,9.77
2023-04-15T03:09:12.897Z,11.47
2023-04-15T03:11:41.598Z,9.90
2023-04-15T03:14:08.592Z,7.80
2023-04-15T03:16:35.960Z,9.13
2023-04-15T03:19:03.195Z,8.90
2023-04-15T03:21:30.861Z,7.03
2023-04-15T03:23:57.948Z,10.03
2023-04-15T03:26:29.659Z,9.13
2023-04-15T03:28:57.297Z,8.93
2023-04-15T03:31:24.670Z,7.60
2023-04-15T03:33:51.720Z,7.73
2023-04-15T03:36:18.674Z,10.77
2023-04-15T03:38:45.834Z,8.17
2023-04-15T03:41:13.135Z,15.47
2023-04-15T03:43:40.047Z,9.73
2023-04-15T03:46:07.252Z,8.07
2023-04-15T03:48:34.198Z,8.97
2023-04-15T03:51:01.380Z,11.37
2023-04-15T03:53:29.503Z,9.43
2023-04-15T03:55:56.842Z,13.37
2023-04-15T03:58:25.897Z,14.27
2023-04-15T04:00:52.849Z,15.57
2023-04-15T04:03:20.102Z,13.43
2023-04-15T04:05:47.284Z,15.70
2023-04-15T04:08:15.155Z,13.23
2023-04-15T04:10:42.590Z,12.37
2023-04-15T04:13:09.512Z,14.50
2023-04-15T04:15:36.702Z,16.57
2023-04-15T04:18:03.834Z,15.10
2023-04-15T04:20:32.139Z,18.73
2023-04-15T04:22:59.269Z,20.80
2023-04-15T04:25:26.192Z,18.90
2023-04-15T04:27:53.204Z,22.03
2023-04-15T04:30:20.315Z,18.77
2023-04-15T04:32:49.995Z,18.57
2023-04-15T04:35:17.477Z,20.90
2023-04-15T04:37:44.416Z,22.53
2023-04-15T04:40:12.176Z,25.43
2023-04-15T04:42:40.153Z,22.37
2023-04-15T04:45:07.898Z,21.43
2023-04-15T04:47:34.796Z,23.40
2023-04-15T04:50:03.551Z,22.03
2023-04-15T04:52:30.680Z,30.03
2023-04-15T04:54:57.590Z,26.43
2023-04-15T04:57:24.517Z,24.47
2023-04-15T04:59:51.659Z,22.63
2023-04-15T05:02:18.725Z,23.53
2023-04-15T05:04:45.938Z,27.07
2023-04-15T05:07:12.877Z,24.07
2023-04-15T05:09:39.799Z,23.87
2023-04-15T05:12:08.962Z,22.37
2023-04-15T05:14:35.966Z,23.00
2023-04-15T05:17:03.468Z,20.47
2023-04-15T05:19:30.897Z,24.17
2023-04-15T05:21:57.992Z,21.20
2023-04-15T05:24:25.409Z,26.97
2023-04-15T05:26:52.312Z,24.83
2023-04-15T05:29:19.302Z,25.63
2023-04-15T05:31:46.628Z,22.03
2023-04-15T05:34:15.835Z,22.90
2023-04-15T05:36:42.873Z,22.93
2023-04-15T05:39:09.776Z,19.63
2023-04-15T05:41:36.790Z,18.43
2023-04-15T05:44:03.874Z,21.03
2023-04-15T05:46:30.873Z,18.53
2023-04-15T05:48:57.850Z,17.63
2023-04-15T05:51:24.861Z,14.40
2023-04-15T05:53:51.867Z,15.50
2023-04-15T05:56:20.334Z,14.40
2023-04-15T05:58:47.330Z,15.93
2023-04-15T06:01:14.364Z,13.53
2023-04-15T06:03:43.716Z,12.43
2023-04-15T06:06:10.929Z,12.47
2023-04-15T06:08:38.348Z,10.87
2023-04-15T06:11:05.956Z,11.50
2023-04-15T06:13:32.963Z,10.60
2023-04-15T06:16:00.089Z,12.00
2023-04-15T06:18:27.039Z,14.73
2023-04-15T06:20:53.997Z,14.60
2023-04-15T06:23:21.224Z,11.93
2023-04-15T06:25:48.335Z,13.43
2023-04-15T06:28:15.355Z,8.70
2023-04-15T06:30:42.334Z,12.37
2023-04-15T06:33:10.579Z,12.23
2023-04-15T06:35:37.688Z,9.37
2023-04-15T06:38:04.717Z,10.80
2023-04-15T06:40:32.289Z,9.93
2023-04-15T06:42:59.216Z,10.83
2023-04-15T06:45:26.647Z,8.13
2023-04-15T06:47:53.712Z,10.47
2023-04-15T06:50:20.691Z,11.90
2023-04-15T06:52:47.687Z,11.17
2023-04-15T06:55:14.973Z,9.87
2023-04-15T06:57:41.940Z,7.67
2023-04-15T07:00:12.068Z,9.50
2023-04-15T07:02:39.332Z,12.40
2023-04-15T07:05:08.464Z,11.50
2023-04-15T07:07:36.176Z,8.80
2023-04-15T07:10:03.450Z,8.13
2023-04-15T07:12:30.625Z,8.27
2023-04-15T07:14:57.720Z,9.00
2023-04-15T07:17:24.804Z,12.27
2023-04-15T07:19:51.786Z,10.43
2023-04-15T07:22:18.705Z,10.70
2023-04-15T07:24:46.796Z,14.40
2023-04-15T07:27:13.750Z,12.47
2023-04-15T07:29:41.390Z,16.13
2023-04-15T07:32:08.382Z,12.27
2023-04-15T07:34:35.354Z,17.37
2023-04-15T07:37:02.334Z,11.97
2023-04-15T07:39:29.951Z,16.10
2023-04-15T07:41:57.256Z,17.93
2023-04-15T07:44:25.312Z,16.53
2023-04-15T07:46:53.327Z,16.90
2023-04-15T07:49:21.714Z,16.33
2023-04-15T07:51:49.307Z,16.43
2023-04-15T07:54:16.534Z,20.50
2023-04-15T07:56:44.642Z,21.23
2023-04-15T07:59:11.703Z,21.77
2023-04-15T08:01:39.091Z,21.17
2023-04-15T08:04:06.347Z,19.80
2023-04-15T08:06:33.424Z,19.03
2023-04-15T08:09:01.023Z,21.53
2023-04-15T08:11:28.326Z,18.90
2023-04-15T08:13:57.565Z,23.60
2023-04-15T08:16:30.144Z,20.63
2023-04-15T08:18:57.866Z,22.07
2023-04-15T08:21:27.827Z,21.08
2023-04-15T08:24:00.345Z,19.33
2023-04-15T08:26:27.250Z,14.67
2023-04-15T08:28:57.581Z,20.63
2023-04-15T08:31:26.942Z,15.40
2023-04-15T08:33:54.901Z,16.93
2023-04-15T08:36:22.068Z,20.05
2023-04-15T08:38:49.005Z,15.88
2023-04-15T08:41:25.322Z,18.88
2023-04-15T08:44:04.352Z,24.05
2023-04-15T08:46:37.864Z,28.08
2023-04-15T08:49:05.877Z,26.92
2023-04-15T08:51:34.188Z,25.05
2023-04-15T08:54:02.569Z,27.08
2023-04-15T08:56:34.828Z,27.80
2023-04-15T08:59:02.468Z,36.40
2023-04-15T09:01:30.184Z,45.08
2023-04-15T09:03:59.395Z,37.00
2023-04-15T09:06:27.115Z,32.63
2023-04-15T09:08:54.193Z,41.58
2023-04-15T09:11:22.596Z,39.63
2023-04-15T09:13:50.053Z,45.50
2023-04-15T09:16:17.409Z,48.33
2023-04-15T09:18:44.607Z,41.58
2023-04-15T09:21:17.425Z,44.15
2023-04-15T09:24:02.437Z,45.35
2023-04-15T09:26:40.225Z,47.88
2023-04-15T09:29:16.089Z,48.78
2023-04-15T09:31:43.566Z,38.78
2023-04-15T09:34:10.747Z,42.35
2023-04-15T09:36:54.448Z,40.38
2023-04-15T09:39:21.628Z,33.40
2023-04-15T09:42:24.464Z,34.95
2023-04-15T09:44:53.166Z,29.77
2023-04-15T09:47:31.838Z,26.55
2023-04-15T09:50:00.528Z,27.73
2023-04-15T09:52:29.396Z,26.42
2023-04-15T09:54:59.352Z,29.52
2023-04-15T09:57:34.551Z,25.20
2023-04-15T10:00:01.702Z,17.83
2023-04-15T10:02:30.600Z,23.17
2023-04-15T10:04:57.992Z,20.13
2023-04-15T10:07:28.414Z,15.85
2023-04-15T10:09:55.943Z,15.55
2023-04-15T10:12:23.581Z,14.10
2023-04-15T10:14:59.880Z,12.65
2023-04-15T10:17:37.248Z,14.00
2023-04-15T10:20:06.387Z,13.40
2023-04-15T10:22:33.435Z,17.88
2023-04-15T10:25:01.221Z,16.30
2023-04-15T10:27:29.142Z,20.48
2023-04-15T10:29:57.486Z,18.38
2023-04-15T10:32:26.617Z,19.65
2023-04-15T10:34:55.034Z,19.98
2023-04-15T10:37:33.735Z,27.33
2023-04-15T10:40:00.683Z,25.50
2023-04-15T10:42:35.466Z,25.52
2023-04-15T10:45:02.460Z,22.20
2023-04-15T10:47:29.477Z,20.98
2023-04-15T10:50:02.394Z,22.00
2023-04-15T10:52:30.060Z,20.00
2023-04-15T10:55:16.617Z,19.48
2023-04-15T10:57:44.526Z,23.35
2023-04-15T11:00:19.350Z,35.30
2023-04-15T11:02:54.374Z,30.48
2023-04-15T11:05:43.804Z,32.00
2023-04-15T11:08:12.423Z,28.35
2023-04-15T11:10:39.330Z,28.27
2023-04-15T11:13:24.253Z,22.20
2023-04-15T11:15:52.102Z,22.40
2023-04-15T11:18:26.820Z,19.05
2023-04-15T11:20:59.595Z,18.40
2023-04-15T11:23:47.077Z,15.93
2023-04-15T11:26:14.937Z,9.88
2023-04-15T11:28:47.627Z,9.13
2023-04-15T11:31:17.741Z,8.73
2023-04-15T11:33:58.200Z,9.23
2023-04-15T11:36:31.818Z,7.90
2023-04-15T11:38:59.962Z,8.00
2023-04-15T11:41:26.948Z,5.88
2023-04-15T11:43:53.980Z,8.38
2023-04-15T11:46:23.061Z,6.28
2023-04-15T11:48:50.342Z,6.25
2023-04-15T11:51:17.584Z,7.90
2023-04-15T11:53:52.015Z,7.30
2023-04-15T11:56:22.129Z,6.05
2023-04-15T11:58:52.806Z,7.70
2023-04-15T12:01:19.881Z,5.85
2023-04-15T12:03:49.461Z,7.75
2023-04-15T12:06:24.795Z,5.88
2023-04-15T12:09:01.827Z,8.60
2023-04-15T12:11:33.696Z,7.63
2023-04-15T12:14:25.217Z,5.72
2023-04-15T12:17:02.150Z,9.40
2023-04-15T12:19:42.052Z,7.25
2023-04-15T12:22:14.132Z,7.75
2023-04-15T12:24:48.705Z,7.13
2023-04-15T12:27:17.078Z,5.75
2023-04-15T12:29:44.211Z,5.75
2023-04-15T12:32:20.893Z,6.35
2023-04-15T12:34:54.322Z,7.72
2023-04-15T12:37:21.605Z,5.25
2023-04-15T12:39:50.087Z,6.97
2023-04-15T12:42:18.100Z,5.72
2023-04-15T12:44:45.390Z,3.97
2023-04-15T12:47:13.098Z,5.68
2023-04-15T12:49:40.153Z,6.43
2023-04-15T12:52:07.311Z,4.13
2023-04-15T12:54:34.798Z,5.20
2023-04-15T12:57:04.662Z,5.28
2023-04-15T12:59:33.708Z,5.25
2023-04-15T13:02:01.254Z,6.03
2023-04-15T13:04:30.955Z,7.70
2023-04-15T13:06:58.358Z,6.47
2023-04-15T13:09:26.004Z,5.32
2023-04-15T13:11:54.309Z,6.78
2023-04-15T13:14:21.414Z,6.93
2023-04-15T13:16:48.444Z,8.05
2023-04-15T13:19:15.828Z,7.05
2023-04-15T13:21:42.771Z,11.80
2023-04-15T13:24:09.944Z,8.00
2023-04-15T13:26:37.787Z,9.27
2023-04-15T13:29:04.769Z,9.25
2023-04-15T13:31:31.880Z,6.15
2023-04-15T13:33:58.975Z,10.07
2023-04-15T13:36:26.749Z,11.88
2023-04-15T13:38:53.756Z,15.52
2023-04-15T13:41:21.229Z,7.13
2023-04-15T13:43:48.202Z,9.68
2023-04-15T13:46:15.569Z,11.23
2023-04-15T13:48:42.661Z,8.10
2023-04-15T13:51:09.655Z,10.07
2023-04-15T13:53:38.859Z,9.02
2023-04-15T13:56:07.927Z,8.00
2023-04-15T13:58:34.906Z,8.50
2023-04-15T14:01:04.656Z,6.00
2023-04-15T14:03:33.360Z,9.23
2023-04-15T14:06:00.580Z,7.82
2023-04-15T14:08:27.528Z,8.88
2023-04-15T14:10:54.434Z,9.02
2023-04-15T14:13:21.371Z,7.43
2023-04-15T14:15:48.382Z,10.40
2023-04-15T14:18:15.350Z,8.13
2023-04-15T14:20:45.030Z,10.55
2023-04-15T14:23:11.996Z,13.30
2023-04-15T14:25:41.673Z,11.27
2023-04-15T14:28:08.606Z,11.55
2023-04-15T14:30:35.950Z,10.82
2023-04-15T14:33:03.372Z,10.35
2023-04-15T14:35:31.078Z,9.20
2023-04-15T14:37:57.993Z,9.23
2023-04-15T14:40:24.960Z,10.50
2023-04-15T14:42:51.992Z,11.77
2023-04-15T14:45:19.018Z,11.55
2023-04-15T14:47:47.011Z,11.32
2023-04-15T14:50:14.042Z,9.73
2023-04-15T14:52:40.966Z,9.90
2023-04-15T14:55:10.422Z,8.07
2023-04-15T14:57:42.168Z,7.68
2023-04-15T15:00:12.702Z,10.30
2023-04-15T15:02:42.591Z,8.55
2023-04-15T15:05:10.980Z,12.02
2023-04-15T15:07:40.704Z,8.55
2023-04-15T15:10:08.227Z,7.78
2023-04-15T15:12:35.243Z,8.18
2023-04-15T15:15:12.397Z,8.10
2023-04-15T15:17:46.953Z,9.15
2023-04-15T15:20:14.232Z,8.45
2023-04-15T15:22:41.148Z,5.68
2023-04-15T15:25:08.162Z,9.88
2023-04-15T15:27:37.689Z,8.73
2023-04-15T15:30:06.830Z,8.43
2023-04-15T15:32:33.900Z,9.27
2023-04-15T15:35:00.974Z,7.80
2023-04-15T15:37:27.852Z,5.72
2023-04-15T15:39:54.805Z,7.07
2023-04-15T15:42:23.538Z,5.72
2023-04-15T15:44:52.821Z,6.32
2023-04-15T15:47:21.938Z,3.55
2023-04-15T15:49:49.002Z,8.05
2023-04-15T15:52:15.957Z,3.00
2023-04-15T15:54:43.155Z,6.22
2023-04-15T15:57:10.666Z,6.93
2023-04-15T15:59:43.583Z,7.28
2023-04-15T16:02:12.438Z,4.15
2023-04-15T16:04:40.063Z,4.18
2023-04-15T16:07:07.450Z,3.78
2023-04-15T16:09:34.557Z,5.40
2023-04-15T16:12:02.061Z,7.87
2023-04-15T16:14:28.991Z,9.07
2023-04-15T16:16:56.247Z,6.82
2023-04-15T16:19:23.273Z,7.18
2023-04-15T16:21:50.809Z,7.45
2023-04-15T16:24:17.747Z,5.50
2023-04-15T16:26:44.839Z,7.40
2023-04-15T16:29:11.759Z,6.63
2023-04-15T16:31:41.459Z,6.57
2023-04-15T16:34:09.127Z,6.13
2023-04-15T16:36:36.268Z,7.37
2023-04-15T16:39:03.482Z,6.60
2023-04-15T16:41:32.573Z,6.13
2023-04-15T16:44:01.967Z,8.03
2023-04-15T16:46:29.779Z,5.78
2023-04-15T16:48:57.003Z,6.57
2023-04-15T16:51:23.959Z,6.07
2023-04-15T16:53:51.067Z,4.20
2023-04-15T16:56:18.037Z,5.30
2023-04-15T16:58:44.934Z,6.47
2023-04-15T17:01:12.140Z,4.77
2023-04-15T17:03:40.027Z,5.97
2023-04-15T17:06:07.075Z,5.37
2023-04-15T17:08:34.018Z,7.90
2023-04-15T17:11:01.075Z,6.27
2023-04-15T17:13:28.004Z,6.77
2023-04-15T17:15:55.904Z,5.10
2023-04-15T17:18:23.034Z,6.70
2023-04-15T17:20:50.078Z,8.63
2023-04-15T17:23:17.146Z,4.83
2023-04-15T17:25:44.091Z,7.70
2023-04-15T17:28:11.139Z,7.70
2023-04-15T17:30:38.059Z,5.00
2023-04-15T17:33:56.386Z,9.23
2023-04-15T17:35:53.557Z,5.90
2023-04-15T17:38:20.502Z,6.90
2023-04-15T17:40:47.460Z,5.30
2023-04-15T17:43:14.525Z,6.47
2023-04-15T17:45:41.470Z,6.57
2023-04-15T17:48:08.490Z,4.13
2023-04-15T17:50:35.778Z,7.10
2023-04-15T17:53:02.869Z,4.10
2023-04-15T17:55:29.845Z,6.40
2023-04-15T17:57:56.845Z,8.80
2023-04-15T18:00:23.997Z,9.30
2023-04-15T18:02:51.075Z,8.67
2023-04-15T18:05:19.847Z,9.43
2023-04-15T18:07:46.851Z,10.80
2023-04-15T18:10:13.727Z,8.13
2023-04-15T18:12:40.752Z,9.73
2023-04-15T18:15:11.020Z,6.63
2023-04-15T18:17:38.071Z,10.07
2023-04-15T18:20:05.651Z,12.10
2023-04-15T18:22:32.568Z,10.30
2023-04-15T18:25:04.171Z,10.63
2023-04-15T18:27:33.448Z,8.23
2023-04-15T18:30:00.533Z,11.17
2023-04-15T18:32:31.634Z,13.53
2023-04-15T18:34:58.866Z,10.97
2023-04-15T18:37:29.361Z,10.40
2023-04-15T18:39:56.763Z,7.67
2023-04-15T18:42:24.838Z,12.57
2023-04-15T18:44:53.266Z,10.87
2023-04-15T18:47:20.449Z,12.10
2023-04-15T18:49:47.457Z,7.67
2023-04-15T18:52:14.385Z,12.40
2023-04-15T18:54:41.314Z,11.27
2023-04-15T18:57:08.460Z,8.03
2023-04-15T18:59:35.770Z,15.20
2023-04-15T19:02:06.311Z,10.87
2023-04-15T19:04:33.452Z,9.97
2023-04-15T19:07:01.656Z,17.57
2023-04-15T19:09:31.814Z,12.90
2023-04-15T19:11:58.758Z,14.97
2023-04-15T19:14:25.927Z,16.20
2023-04-15T19:16:52.996Z,12.17
2023-04-15T19:19:20.053Z,12.87
2023-04-15T19:21:49.848Z,17.47
2023-04-15T19:24:18.186Z,19.07
2023-04-15T19:26:50.246Z,20.60
2023-04-15T19:29:17.631Z,13.10
2023-04-15T19:31:44.867Z,15.77
2023-04-15T19:34:11.832Z,16.53
2023-04-15T19:36:38.742Z,14.57
2023-04-15T19:39:06.326Z,14.77
2023-04-15T19:41:33.441Z,17.70
2023-04-15T19:44:00.759Z,19.90
2023-04-15T19:46:30.110Z,13.43
2023-04-15T19:48:57.257Z,15.53
2023-04-15T19:51:28.491Z,17.40
2023-04-15T19:53:56.874Z,19.60
2023-04-15T19:56:24.342Z,23.63
2023-04-15T19:58:53.110Z,19.67
2023-04-15T20:01:21.411Z,14.80
2023-04-15T20:03:48.896Z,17.83
2023-04-15T20:06:16.108Z,23.83
2023-04-15T20:08:43.215Z,17.70
2023-04-15T20:11:11.083Z,19.50
2023-04-15T20:13:42.144Z,29.13
2023-04-15T20:16:09.323Z,22.53
2023-04-15T20:18:36.361Z,23.57
2023-04-15T20:21:03.418Z,27.30
2023-04-15T20:23:30.427Z,20.17
2023-04-15T20:25:57.436Z,22.77
2023-04-15T20:28:27.397Z,19.17
2023-04-15T20:30:54.380Z,27.37
2023-04-15T20:33:22.340Z,22.20
2023-04-15T20:35:49.318Z,23.07
2023-04-15T20:38:16.469Z,21.77
2023-04-15T20:40:43.773Z,19.67
2023-04-15T20:43:10.813Z,17.07
2023-04-15T20:45:38.745Z,18.33
2023-04-15T20:48:06.135Z,19.43
2023-04-15T20:50:33.124Z,21.20
2023-04-15T20:53:00.300Z,19.73
2023-04-15T20:55:28.374Z,25.40
2023-04-15T20:57:58.289Z,20.20
2023-04-15T21:00:25.502Z,16.37
2023-04-15T21:02:52.686Z,20.43
2023-04-15T21:05:19.844Z,13.87
2023-04-15T21:07:46.795Z,20.00
2023-04-15T21:10:13.737Z,25.73
2023-04-15T21:12:42.523Z,16.27
2023-04-15T21:15:10.163Z,24.50
2023-04-15T21:17:37.221Z,25.87
2023-04-15T21:20:04.642Z,21.80
2023-04-15T21:22:31.554Z,18.00
2023-04-15T21:24:58.573Z,16.77
2023-04-15T21:27:26.225Z,16.43
2023-04-15T21:29:53.280Z,20.33
2023-04-15T21:32:20.404Z,24.40
2023-04-15T21:34:47.577Z,18.00
2023-04-15T21:37:14.474Z,22.97
2023-04-15T21:39:41.934Z,19.63
2023-04-15T21:42:08.953Z,18.13
2023-04-15T21:44:36.124Z,22.27
2023-04-15T21:47:03.138Z,14.33
2023-04-15T21:49:31.022Z,18.97
2023-04-15T21:52:01.334Z,15.50
2023-04-15T21:54:28.863Z,18.17
2023-04-15T21:56:57.742Z,20.33
2023-04-15T21:59:24.651Z,23.13
2023-04-15T22:01:51.934Z,16.37
2023-04-15T22:04:19.141Z,20.10
2023-04-15T22:06:46.915Z,20.20
2023-04-15T22:09:14.486Z,18.73
2023-04-15T22:11:41.557Z,18.67
2023-04-15T22:14:09.100Z,19.53
2023-04-15T22:16:36.160Z,17.60
2023-04-15T22:19:03.167Z,16.60
2023-04-15T22:21:30.125Z,18.33
2023-04-15T22:24:38.738Z,13.67
2023-04-15T22:26:44.309Z,17.73
2023-04-15T22:29:11.292Z,14.90
2023-04-15T22:31:38.242Z,19.13
2023-04-15T22:34:05.264Z,15.27
2023-04-15T22:36:32.356Z,15.50
2023-04-15T22:38:59.250Z,17.10
2023-04-15T22:41:26.353Z,19.10
2023-04-15T22:43:53.421Z,12.43
2023-04-15T22:46:20.453Z,21.83
2023-04-15T22:48:47.410Z,17.77
2023-04-15T22:51:22.770Z,18.73
2023-04-15T22:53:50.607Z,20.20
2023-04-15T22:56:21.912Z,15.70
2023-04-15T22:58:50.003Z,18.50
2023-04-15T23:01:17.844Z,15.40
2023-04-15T23:03:56.938Z,18.23
2023-04-15T23:06:31.172Z,11.27
2023-04-15T23:08:58.122Z,15.47
2023-04-15T23:11:25.076Z,18.90
2023-04-15T23:13:53.023Z,15.10
2023-04-15T23:16:27.844Z,16.10
2023-04-15T23:18:54.985Z,15.20
2023-04-15T23:21:25.493Z,20.30
2023-04-15T23:23:53.482Z,16.93
2023-04-15T23:26:20.405Z,16.50
2023-04-15T23:28:47.307Z,16.23
2023-04-15T23:31:14.427Z,18.87
2023-04-15T23:33:41.382Z,14.60
2023-04-15T23:36:08.429Z,21.97
2023-04-15T23:38:58.623Z,19.97
2023-04-15T23:41:25.561Z,15.40
2023-04-15T23:43:52.479Z,23.83
2023-04-15T23:46:19.694Z,15.07
2023-04-15T23:48:53.502Z,14.40
2023-04-15T23:51:22.560Z,13.67
2023-04-15T23:53:50.030Z,23.97
2023-04-15T23:56:17.047Z,18.03
2023-04-15T23:58:44.023Z,12.10
